This is the latest recevied weather packets stored in our database for station/object KU9TRY. If no packets are shown the sender has not sent any weather packets the latest 10 day(s).
| Time | Temp. | Humidity | Pressure | Rain* | Wind** | Luminosity | Snow |
|---|---|---|---|---|---|---|---|
| 1777480193 | 20.56° C | 89% | 1012.6 hPa | 0 mm | - | 111 W/m² | - |
| 1777478677 | 19.44° C | 92% | 1012.5 hPa | 0 mm | - | 164 W/m² | - |
| 1777476250 | 20.56° C | 88% | 1012.8 hPa | 0 mm | - | 96 W/m² | - |
| 1777475945 | 20.56° C | 88% | 1012.6 hPa | 0 mm | - | 156 W/m² | - |
| 1777475338 | 20° C | 89% | 1012.6 hPa | 0 mm | - | 187 W/m² | - |
| 1777474123 | 20° C | 90% | 1012.2 hPa | 0 mm | - | 218 W/m² | - |
| 1777473517 | 19.44° C | 91% | 1012.3 hPa | 0 mm | - | 246 W/m² | - |
| 1777470483 | 17.78° C | 95% | 1012.5 hPa | 0 mm | - | 78 W/m² | - |
| 1777469875 | 17.78° C | 96% | 1012.7 hPa | 0 mm | - | 70 W/m² | - |
| 1777469571 | 17.78° C | 96% | 1012.8 hPa | 0 mm | - | 50 W/m² | - |
| 1777469265 | 17.78° C | 96% | 1012.7 hPa | 0 mm | - | 57 W/m² | - |
| 1777468961 | 17.78° C | 96% | 1012.7 hPa | 0 mm | - | 75 W/m² | - |
| 1777468657 | 17.78° C | 96% | 1012.7 hPa | 0 mm | - | 39 W/m² | - |
| 1777468354 | 17.78° C | 96% | 1012.7 hPa | 0 mm | - | 45 W/m² | - |
| 1777468050 | 17.22° C | 96% | 1012.5 hPa | 0 mm | - | 40 W/m² | - |
| 1777467746 | 17.22° C | 96% | 1012.5 hPa | 0 mm | - | 43 W/m² | - |
| 1777467441 | 17.22° C | 96% | 1012.8 hPa | 0 mm | - | 47 W/m² | - |
| 1777467137 | 17.22° C | 96% | 1012.9 hPa | 0 mm | - | 30 W/m² | - |
| 1777466229 | 16.67° C | 97% | 1012.7 hPa | 0 mm | - | 43 W/m² | - |
| 1777465924 | 16.67° C | 97% | 1012.8 hPa | 0 mm | - | 35 W/m² | - |
| 1777465621 | 16.67° C | 98% | 1012.8 hPa | 0 mm | - | 80 W/m² | - |
| 1777465316 | 16.67° C | 98% | 1012.9 hPa | 0 mm | - | 59 W/m² | - |
| 1777465010 | 16.67° C | 98% | 1013 hPa | 0 mm | - | 36 W/m² | - |
| 1777464705 | 16.67° C | 98% | 1012.9 hPa | 0 mm | - | 48 W/m² | - |
| 1777464403 | 16.67° C | 98% | 1012.9 hPa | 0 mm | - | 42 W/m² | - |
* Rain latest hour (hover to see other rain measurements)
** Current wind speed in m/s (hover to see current wind gust speed)